12:59
Airports
History
Links
Donate
Help keep this website running!
PayPal
Bitcoin
Information on this page is community maintained and may be outdated or inaccurate and is intended for reference only or PC simulator navigating.
Always use approved charts for navigating.
VAGO
DabolimEdited 30-Jun-2011
Dabolim (VAGO)
Dabolim, Goa, India (403801)
(C)
Lat/Lng:15° 22' 51" N / 73° 49' 53.12" E
15.380834 / 73.831422
Elevation:183'ft 56mMSL
ID / ICAO:VAGO
Runways:1
Longest:(08-26) 3,444.0m 11,299ft Asphalt
Controlled:Yes
Beacon:White-Green
Distance To
Airport ID:
Airport Radio Frequencies
VAGO_ATIS: 126.6
Tower: 118.1, 119.7
Nearby VORs <50NM
Nearby NDBs
METARUpdated 07-03-17 05:30 GMT
Altimeter: 29.74
Visibility: 2.5 statute miles
Wind: 1 knots (999°)
Temp: 24°c 75°f
Humidity: 100.0%

METAR: VAGO 030530Z 99901KT 4000 RA FEW008 SCT010 FEW022TCU/CB BKN070 24/24 Q1007 TEMPO 3000 RA

(Powered by phpweather)
Runway 08 / 26
Dimensions:3444 x 45.1m 11299' x 148'ft
Surface:Asphalt
Edge Lights:High intensity
Runway 08 [A]Runway 26 [B]
Heading:078°TH 258°TH
Lat:
Lng:
15° 22' 40.09"N
73° 48' 56.25"E
15° 23' 1.91"N
73° 50' 49.99"E
ALS:ALSF-I
User Notes and Comments
Google Map
Nearby Airports
(C) BELGAUM 61.9 NM
VABM (WX) ENE 57°
(C) HUBLI 83.5 NM
VAHB E 90°
(C) KOLHAPUR 93.8 NM
VAKP NNE 18°
(U) RATNAGIRI 117.7 NM
VARG NNW 343°
(U) KARAD 133.4 NM
VA1M N
(U) HARIHAR 143.0 NM
VO52 ESE 114°
(C) MANGALORE 181.9 NM
VOML (WX) SSE 157°
VFR Chart
Flight Planning at SkyVector.com